HKE566 VVDN-VHHH
Flight info
| Callsign | HKE566 |
|---|---|
| Flight time | 0h 59m |
| Altitude | 37000 |
| Route | BUNTA2G BUNTA A1 IKELA/N0454F370 P901 IDOSI V561 CANTO |
| Aircraft | A321/M-SDE3FGHIRWY/LB1 |
Departure
| Time | 2026-04-30 11:26 |
|---|---|
| Airport | Da Nang International Airport (VVDN) |
Arrival
| Time | 2026-04-30 12:25 |
|---|---|
| Airport | Hong Kong International Airport (VHHH) |
| Time | Latitude | Longitude | Altitude | Speed | Heading |
|---|---|---|---|---|---|
| 2026-04-30 11:14 | 16.05779 | 108.20126 | 35 ft | 0 kts | 82° |
| 2026-04-30 11:17 | 16.05777 | 108.20111 | 34 ft | 4 kts | 82° |
| 2026-04-30 11:17 | 16.05773 | 108.20083 | 32 ft | 4 kts | 82° |
| 2026-04-30 11:17 | 16.05770 | 108.20055 | 31 ft | 4 kts | 82° |
| 2026-04-30 11:18 | 16.05766 | 108.20027 | 33 ft | 4 kts | 82° |
| 2026-04-30 11:18 | 16.05760 | 108.19988 | 34 ft | 1 kts | 82° |
| 2026-04-30 11:18 | 16.05760 | 108.19987 | 34 ft | 0 kts | 82° |
| 2026-04-30 11:20 | 16.05761 | 108.19989 | 34 ft | 1 kts | 82° |
| 2026-04-30 11:20 | 16.05759 | 108.19998 | 34 ft | 1 kts | 109° |
| 2026-04-30 11:20 | 16.05745 | 108.19995 | 33 ft | 7 kts | 192° |
| 2026-04-30 11:20 | 16.05651 | 108.19999 | 34 ft | 18 kts | 172° |
| 2026-04-30 11:21 | 16.05526 | 108.20016 | 34 ft | 19 kts | 172° |
| 2026-04-30 11:21 | 16.05393 | 108.20035 | 34 ft | 20 kts | 171° |
| 2026-04-30 11:21 | 16.05253 | 108.20057 | 34 ft | 21 kts | 172° |
| 2026-04-30 11:21 | 16.05106 | 108.20078 | 34 ft | 22 kts | 172° |
| 2026-04-30 11:22 | 16.04950 | 108.20102 | 33 ft | 23 kts | 172° |
| 2026-04-30 11:22 | 16.04786 | 108.20126 | 34 ft | 24 kts | 172° |
| 2026-04-30 11:22 | 16.04617 | 108.20151 | 34 ft | 25 kts | 172° |
| 2026-04-30 11:22 | 16.04441 | 108.20175 | 33 ft | 26 kts | 172° |
| 2026-04-30 11:23 | 16.04260 | 108.20202 | 34 ft | 26 kts | 172° |
| 2026-04-30 11:23 | 16.04075 | 108.20229 | 34 ft | 27 kts | 172° |
| 2026-04-30 11:23 | 16.03696 | 108.20284 | 34 ft | 28 kts | 172° |
| 2026-04-30 11:24 | 16.03498 | 108.20315 | 34 ft | 29 kts | 174° |
| 2026-04-30 11:24 | 16.03294 | 108.20340 | 33 ft | 30 kts | 172° |
| 2026-04-30 11:24 | 16.03098 | 108.20368 | 33 ft | 26 kts | 171° |
| 2026-04-30 11:25 | 16.02943 | 108.20263 | 30 ft | 14 kts | 326° |
| 2026-04-30 11:25 | 16.03046 | 108.20237 | 31 ft | 19 kts | 351° |
| 2026-04-30 11:25 | 16.04280 | 108.20057 | 34 ft | 152 kts | 352° |
| 2026-04-30 11:26 | 16.06642 | 108.19770 | 1127 ft | 174 kts | 357° |
| 2026-04-30 11:26 | 16.07850 | 108.19726 | 1812 ft | 174 kts | 356° |
| 2026-04-30 11:26 | 16.09114 | 108.19709 | 2129 ft | 191 kts | 358° |
| 2026-04-30 11:27 | 16.10525 | 108.19690 | 2276 ft | 215 kts | 357° |
| 2026-04-30 11:27 | 16.12109 | 108.19665 | 2491 ft | 241 kts | 357° |
| 2026-04-30 11:27 | 16.13851 | 108.19639 | 2991 ft | 255 kts | 358° |
| 2026-04-30 11:27 | 16.15644 | 108.19614 | 3673 ft | 260 kts | 359° |
| 2026-04-30 11:28 | 16.19372 | 108.19549 | 4963 ft | 274 kts | 360° |
| 2026-04-30 11:28 | 16.21298 | 108.19512 | 5673 ft | 279 kts | 359° |
| 2026-04-30 11:28 | 16.23253 | 108.19471 | 6353 ft | 283 kts | 359° |
| 2026-04-30 11:29 | 16.25242 | 108.19427 | 6978 ft | 289 kts | 359° |
| 2026-04-30 11:29 | 16.27271 | 108.19381 | 7583 ft | 294 kts | 359° |
| 2026-04-30 11:29 | 16.31324 | 108.19629 | 8942 ft | 297 kts | 20° |
| 2026-04-30 11:30 | 16.34345 | 108.22429 | 10176 ft | 300 kts | 66° |
| 2026-04-30 11:30 | 16.35067 | 108.24526 | 10413 ft | 318 kts | 72° |
| 2026-04-30 11:30 | 16.35754 | 108.26791 | 10526 ft | 338 kts | 73° |
| 2026-04-30 11:31 | 16.36459 | 108.29174 | 10797 ft | 350 kts | 73° |
| 2026-04-30 11:31 | 16.37181 | 108.31615 | 11268 ft | 355 kts | 73° |
| 2026-04-30 11:31 | 16.37915 | 108.34078 | 11788 ft | 358 kts | 73° |
| 2026-04-30 11:31 | 16.38664 | 108.36575 | 12274 ft | 363 kts | 73° |
| 2026-04-30 11:32 | 16.39422 | 108.39087 | 12808 ft | 365 kts | 72° |
| 2026-04-30 11:32 | 16.40192 | 108.41625 | 13296 ft | 370 kts | 73° |
| 2026-04-30 11:32 | 16.40973 | 108.44201 | 13790 ft | 373 kts | 73° |
| 2026-04-30 11:33 | 16.42530 | 108.49350 | 14681 ft | 379 kts | 72° |
| 2026-04-30 11:33 | 16.43325 | 108.51984 | 15094 ft | 382 kts | 72° |
| 2026-04-30 11:33 | 16.44121 | 108.54632 | 15544 ft | 385 kts | 72° |
| 2026-04-30 11:33 | 16.44928 | 108.57315 | 15948 ft | 389 kts | 72° |
| 2026-04-30 11:34 | 16.45729 | 108.60017 | 16403 ft | 392 kts | 72° |
| 2026-04-30 11:34 | 16.46502 | 108.62749 | 16834 ft | 394 kts | 73° |
| 2026-04-30 11:34 | 16.47260 | 108.65513 | 17246 ft | 398 kts | 73° |
| 2026-04-30 11:34 | 16.48014 | 108.68296 | 17676 ft | 400 kts | 73° |
| 2026-04-30 11:35 | 16.48772 | 108.71097 | 18103 ft | 403 kts | 73° |
| 2026-04-30 11:35 | 16.49539 | 108.73921 | 18495 ft | 406 kts | 73° |
| 2026-04-30 11:35 | 16.50313 | 108.76757 | 18872 ft | 408 kts | 73° |
| 2026-04-30 11:35 | 16.51097 | 108.79610 | 19230 ft | 411 kts | 73° |
| 2026-04-30 11:36 | 16.51890 | 108.82485 | 19587 ft | 414 kts | 73° |
| 2026-04-30 11:36 | 16.52688 | 108.85371 | 19988 ft | 415 kts | 73° |
| 2026-04-30 11:36 | 16.53490 | 108.88272 | 20368 ft | 417 kts | 73° |
| 2026-04-30 11:36 | 16.54293 | 108.91182 | 20727 ft | 419 kts | 73° |
| 2026-04-30 11:37 | 16.55097 | 108.94104 | 21080 ft | 421 kts | 73° |
| 2026-04-30 11:37 | 16.56064 | 108.96982 | 21432 ft | 422 kts | 64° |
| 2026-04-30 11:37 | 16.57488 | 108.99662 | 21769 ft | 423 kts | 55° |
| 2026-04-30 11:37 | 16.59123 | 109.02167 | 22110 ft | 424 kts | 54° |
| 2026-04-30 11:38 | 16.60789 | 109.04714 | 22444 ft | 426 kts | 54° |
| 2026-04-30 11:38 | 16.62450 | 109.07261 | 22777 ft | 428 kts | 54° |
| 2026-04-30 11:38 | 16.64141 | 109.09861 | 23127 ft | 430 kts | 54° |
| 2026-04-30 11:38 | 16.65819 | 109.12448 | 23444 ft | 432 kts | 54° |
| 2026-04-30 11:39 | 16.67508 | 109.15053 | 23751 ft | 434 kts | 54° |
| 2026-04-30 11:39 | 16.69206 | 109.17671 | 24028 ft | 436 kts | 54° |
| 2026-04-30 11:39 | 16.70912 | 109.20300 | 24291 ft | 438 kts | 55° |
| 2026-04-30 11:39 | 16.72627 | 109.22946 | 24562 ft | 441 kts | 55° |
| 2026-04-30 11:40 | 16.74352 | 109.25604 | 24823 ft | 443 kts | 55° |
| 2026-04-30 11:40 | 16.76083 | 109.28273 | 25082 ft | 445 kts | 55° |
| 2026-04-30 11:40 | 16.77821 | 109.30955 | 25341 ft | 448 kts | 55° |
| 2026-04-30 11:40 | 16.79572 | 109.33660 | 25594 ft | 450 kts | 55° |
| 2026-04-30 11:41 | 16.81326 | 109.36379 | 25847 ft | 453 kts | 55° |
| 2026-04-30 11:41 | 16.83086 | 109.39112 | 26091 ft | 455 kts | 55° |
| 2026-04-30 11:41 | 16.84864 | 109.41869 | 26337 ft | 458 kts | 55° |
| 2026-04-30 11:41 | 16.86624 | 109.44590 | 26575 ft | 460 kts | 55° |
| 2026-04-30 11:42 | 16.88422 | 109.47364 | 26846 ft | 461 kts | 55° |
| 2026-04-30 11:42 | 16.90228 | 109.50144 | 27131 ft | 463 kts | 55° |
| 2026-04-30 11:42 | 16.92037 | 109.52930 | 27388 ft | 464 kts | 55° |
| 2026-04-30 11:42 | 16.93852 | 109.55732 | 27636 ft | 467 kts | 55° |
| 2026-04-30 11:43 | 16.95058 | 109.57597 | 27796 ft | 468 kts | 56° |
| 2026-04-30 11:43 | 16.97499 | 109.61382 | 28125 ft | 471 kts | 56° |
| 2026-04-30 11:43 | 16.98710 | 109.63261 | 28279 ft | 472 kts | 56° |
| 2026-04-30 11:43 | 17.01173 | 109.67083 | 28595 ft | 475 kts | 56° |
| 2026-04-30 11:44 | 17.02399 | 109.68982 | 28755 ft | 477 kts | 56° |
| 2026-04-30 11:44 | 17.04257 | 109.71861 | 28984 ft | 479 kts | 56° |
| 2026-04-30 11:44 | 17.06122 | 109.74752 | 29211 ft | 481 kts | 56° |
| 2026-04-30 11:44 | 17.08002 | 109.77668 | 29439 ft | 483 kts | 56° |
| 2026-04-30 11:45 | 17.09883 | 109.80585 | 29662 ft | 485 kts | 56° |
| 2026-04-30 11:45 | 17.11774 | 109.83518 | 29904 ft | 487 kts | 55° |
| 2026-04-30 11:45 | 17.13666 | 109.86456 | 30112 ft | 488 kts | 56° |
| 2026-04-30 11:45 | 17.15563 | 109.89406 | 30287 ft | 490 kts | 55° |
| 2026-04-30 11:46 | 17.17472 | 109.92374 | 30466 ft | 492 kts | 55° |
| 2026-04-30 11:46 | 17.19383 | 109.95346 | 30628 ft | 493 kts | 55° |
| 2026-04-30 11:46 | 17.21303 | 109.98335 | 30791 ft | 495 kts | 55° |
| 2026-04-30 11:46 | 17.23222 | 110.01324 | 30950 ft | 496 kts | 55° |
| 2026-04-30 11:47 | 17.25147 | 110.04328 | 31105 ft | 497 kts | 55° |
| 2026-04-30 11:47 | 17.27053 | 110.07304 | 31312 ft | 497 kts | 55° |
| 2026-04-30 11:47 | 17.28979 | 110.10307 | 31530 ft | 497 kts | 55° |
| 2026-04-30 11:47 | 17.30903 | 110.13306 | 31745 ft | 497 kts | 55° |
| 2026-04-30 11:48 | 17.32828 | 110.16310 | 31983 ft | 495 kts | 55° |
| 2026-04-30 11:48 | 17.34749 | 110.19308 | 32226 ft | 495 kts | 55° |
| 2026-04-30 11:48 | 17.36666 | 110.22297 | 32446 ft | 494 kts | 54° |
| 2026-04-30 11:48 | 17.38582 | 110.25286 | 32646 ft | 495 kts | 54° |
| 2026-04-30 11:49 | 17.40504 | 110.28289 | 32843 ft | 496 kts | 54° |
| 2026-04-30 11:49 | 17.42421 | 110.31289 | 33042 ft | 496 kts | 54° |
| 2026-04-30 11:49 | 17.44349 | 110.34283 | 33252 ft | 496 kts | 54° |
| 2026-04-30 11:49 | 17.46289 | 110.37269 | 33464 ft | 496 kts | 54° |
| 2026-04-30 11:50 | 17.48238 | 110.40256 | 33685 ft | 496 kts | 54° |
| 2026-04-30 11:50 | 17.50180 | 110.43233 | 33907 ft | 496 kts | 54° |
| 2026-04-30 11:50 | 17.52099 | 110.46183 | 34096 ft | 496 kts | 54° |
| 2026-04-30 11:50 | 17.54037 | 110.49168 | 34305 ft | 495 kts | 54° |
| 2026-04-30 11:51 | 17.55968 | 110.52148 | 34533 ft | 493 kts | 54° |
| 2026-04-30 11:51 | 17.57889 | 110.55121 | 34743 ft | 493 kts | 54° |
| 2026-04-30 11:51 | 17.59811 | 110.58094 | 34958 ft | 492 kts | 54° |
| 2026-04-30 11:51 | 17.61732 | 110.61061 | 35168 ft | 491 kts | 54° |
| 2026-04-30 11:52 | 17.63649 | 110.64020 | 35378 ft | 491 kts | 54° |
| 2026-04-30 11:52 | 17.65562 | 110.66980 | 35596 ft | 490 kts | 54° |
| 2026-04-30 11:52 | 17.67969 | 110.70709 | 35859 ft | 489 kts | 54° |
| 2026-04-30 11:52 | 17.75594 | 110.82511 | 36629 ft | 487 kts | 54° |
| 2026-04-30 11:53 | 17.83178 | 110.94283 | 36943 ft | 486 kts | 55° |
| 2026-04-30 11:53 | 17.85976 | 110.98645 | 37005 ft | 483 kts | 55° |
| 2026-04-30 11:53 | 17.95782 | 111.13874 | 37000 ft | 485 kts | 54° |
| 2026-04-30 11:54 | 18.10800 | 111.37369 | 37006 ft | 483 kts | 55° |
| 2026-04-30 11:54 | 18.25823 | 111.60865 | 37009 ft | 485 kts | 55° |
| 2026-04-30 11:55 | 18.40900 | 111.84581 | 37042 ft | 489 kts | 55° |
| 2026-04-30 11:55 | 18.55911 | 112.08252 | 37039 ft | 488 kts | 55° |
| 2026-04-30 11:56 | 18.73184 | 112.29761 | 37048 ft | 480 kts | 32° |
| 2026-04-30 11:56 | 18.94986 | 112.46214 | 37043 ft | 482 kts | 33° |
| 2026-04-30 11:57 | 19.07087 | 112.51265 | 37057 ft | 468 kts | 5° |
| 2026-04-30 11:57 | 19.13096 | 112.52318 | 37048 ft | 469 kts | 6° |
| 2026-04-30 11:57 | 19.19528 | 112.53526 | 37047 ft | 470 kts | 6° |
| 2026-04-30 11:58 | 19.39883 | 112.57269 | 37041 ft | 471 kts | 5° |
| 2026-04-30 11:58 | 19.65623 | 112.61957 | 37072 ft | 472 kts | 5° |
| 2026-04-30 11:59 | 19.91512 | 112.66706 | 37055 ft | 471 kts | 5° |
| 2026-04-30 11:59 | 20.17311 | 112.71457 | 37059 ft | 469 kts | 5° |
| 2026-04-30 12:00 | 20.43131 | 112.76203 | 37051 ft | 471 kts | 4° |
| 2026-04-30 12:00 | 20.60803 | 112.79477 | 37070 ft | 470 kts | 5° |
| 2026-04-30 12:01 | 20.67230 | 112.80653 | 36918 ft | 476 kts | 5° |
| 2026-04-30 12:01 | 20.70524 | 112.81257 | 36668 ft | 482 kts | 5° |
| 2026-04-30 12:01 | 20.73836 | 112.81865 | 36423 ft | 483 kts | 5° |
| 2026-04-30 12:02 | 20.77147 | 112.82480 | 36175 ft | 482 kts | 5° |
| 2026-04-30 12:02 | 20.80453 | 112.83100 | 35932 ft | 481 kts | 5° |
| 2026-04-30 12:02 | 20.83747 | 112.83715 | 35692 ft | 479 kts | 5° |
| 2026-04-30 12:02 | 20.87034 | 112.84323 | 35467 ft | 478 kts | 4° |
| 2026-04-30 12:03 | 20.90265 | 112.84919 | 35240 ft | 477 kts | 4° |
| 2026-04-30 12:03 | 20.96796 | 112.86131 | 34468 ft | 475 kts | 4° |
| 2026-04-30 12:03 | 21.00039 | 112.86738 | 33965 ft | 472 kts | 4° |
| 2026-04-30 12:04 | 21.03263 | 112.87345 | 33391 ft | 468 kts | 4° |
| 2026-04-30 12:04 | 21.06457 | 112.87939 | 32871 ft | 464 kts | 4° |
| 2026-04-30 12:04 | 21.09629 | 112.88527 | 32328 ft | 461 kts | 4° |
| 2026-04-30 12:04 | 21.12780 | 112.89115 | 31794 ft | 458 kts | 4° |
| 2026-04-30 12:05 | 21.15904 | 112.89697 | 31288 ft | 454 kts | 5° |
| 2026-04-30 12:05 | 21.19015 | 112.90279 | 30742 ft | 451 kts | 5° |
| 2026-04-30 12:05 | 21.22104 | 112.90858 | 30219 ft | 448 kts | 5° |
| 2026-04-30 12:05 | 21.25163 | 112.91450 | 29649 ft | 446 kts | 9° |
| 2026-04-30 12:06 | 21.28081 | 112.92578 | 29141 ft | 449 kts | 24° |
| 2026-04-30 12:06 | 21.30678 | 112.94440 | 28630 ft | 450 kts | 38° |
| 2026-04-30 12:06 | 21.32757 | 112.96885 | 28101 ft | 451 kts | 53° |
| 2026-04-30 12:06 | 21.34234 | 112.99832 | 27587 ft | 449 kts | 69° |
| 2026-04-30 12:07 | 21.35263 | 113.02984 | 27070 ft | 446 kts | 70° |
| 2026-04-30 12:07 | 21.36281 | 113.06114 | 26571 ft | 442 kts | 70° |
| 2026-04-30 12:07 | 21.37297 | 113.09215 | 26086 ft | 439 kts | 70° |
| 2026-04-30 12:07 | 21.38303 | 113.12296 | 25580 ft | 436 kts | 70° |
| 2026-04-30 12:08 | 21.39303 | 113.15352 | 25105 ft | 433 kts | 70° |
| 2026-04-30 12:08 | 21.40306 | 113.18401 | 24610 ft | 431 kts | 70° |
| 2026-04-30 12:08 | 21.41303 | 113.21429 | 24130 ft | 429 kts | 71° |
| 2026-04-30 12:08 | 21.42291 | 113.24447 | 23640 ft | 427 kts | 71° |
| 2026-04-30 12:09 | 21.43269 | 113.27438 | 23096 ft | 424 kts | 71° |
| 2026-04-30 12:09 | 21.44237 | 113.30410 | 22622 ft | 419 kts | 71° |
| 2026-04-30 12:09 | 21.45190 | 113.33352 | 22150 ft | 415 kts | 71° |
| 2026-04-30 12:09 | 21.46119 | 113.36226 | 21688 ft | 410 kts | 70° |
| 2026-04-30 12:10 | 21.47047 | 113.39100 | 21234 ft | 406 kts | 70° |
| 2026-04-30 12:10 | 21.47968 | 113.41957 | 20774 ft | 403 kts | 70° |
| 2026-04-30 12:10 | 21.48884 | 113.44791 | 20314 ft | 399 kts | 70° |
| 2026-04-30 12:10 | 21.49842 | 113.47579 | 19674 ft | 397 kts | 63° |
| 2026-04-30 12:11 | 21.51335 | 113.50022 | 18721 ft | 387 kts | 44° |
| 2026-04-30 12:11 | 21.53377 | 113.51825 | 17742 ft | 374 kts | 26° |
| 2026-04-30 12:11 | 21.55692 | 113.52971 | 16762 ft | 362 kts | 18° |
| 2026-04-30 12:11 | 21.58001 | 113.53989 | 15901 ft | 354 kts | 18° |
| 2026-04-30 12:12 | 21.60271 | 113.54998 | 15429 ft | 351 kts | 18° |
| 2026-04-30 12:12 | 21.62524 | 113.56005 | 14984 ft | 349 kts | 19° |
| 2026-04-30 12:12 | 21.64759 | 113.57003 | 14556 ft | 347 kts | 19° |
| 2026-04-30 12:12 | 21.66998 | 113.58000 | 14133 ft | 347 kts | 18° |
| 2026-04-30 12:13 | 21.69192 | 113.58981 | 13675 ft | 344 kts | 18° |
| 2026-04-30 12:13 | 21.71391 | 113.59961 | 13243 ft | 340 kts | 18° |
| 2026-04-30 12:13 | 21.73567 | 113.60931 | 12823 ft | 337 kts | 19° |
| 2026-04-30 12:13 | 21.75726 | 113.61896 | 12405 ft | 335 kts | 19° |
| 2026-04-30 12:14 | 21.77871 | 113.62857 | 11985 ft | 333 kts | 19° |
| 2026-04-30 12:14 | 21.80003 | 113.63813 | 11581 ft | 331 kts | 19° |
| 2026-04-30 12:14 | 21.82127 | 113.64765 | 11170 ft | 328 kts | 19° |
| 2026-04-30 12:14 | 21.84191 | 113.65689 | 10644 ft | 315 kts | 19° |
| 2026-04-30 12:15 | 21.86193 | 113.66584 | 9918 ft | 309 kts | 19° |
| 2026-04-30 12:15 | 21.88167 | 113.67467 | 9090 ft | 305 kts | 19° |
| 2026-04-30 12:15 | 21.90088 | 113.68328 | 8311 ft | 301 kts | 20° |
| 2026-04-30 12:15 | 21.92000 | 113.69186 | 7614 ft | 297 kts | 20° |
| 2026-04-30 12:16 | 21.93904 | 113.70038 | 7274 ft | 293 kts | 20° |
| 2026-04-30 12:16 | 21.95771 | 113.70873 | 6976 ft | 288 kts | 20° |
| 2026-04-30 12:16 | 21.97615 | 113.71698 | 6630 ft | 286 kts | 20° |
| 2026-04-30 12:16 | 21.99445 | 113.72517 | 6253 ft | 284 kts | 20° |
| 2026-04-30 12:17 | 22.03057 | 113.74135 | 5519 ft | 279 kts | 21° |
| 2026-04-30 12:17 | 22.04840 | 113.74934 | 5174 ft | 275 kts | 21° |
| 2026-04-30 12:17 | 22.06601 | 113.75723 | 4815 ft | 273 kts | 21° |
| 2026-04-30 12:18 | 22.08347 | 113.76503 | 4456 ft | 269 kts | 20° |
| 2026-04-30 12:18 | 22.10143 | 113.76967 | 4110 ft | 265 kts | 3° |
| 2026-04-30 12:18 | 22.11966 | 113.76820 | 3726 ft | 263 kts | 346° |
| 2026-04-30 12:18 | 22.13650 | 113.76120 | 3321 ft | 263 kts | 336° |
| 2026-04-30 12:19 | 22.15304 | 113.75275 | 3138 ft | 253 kts | 336° |
| 2026-04-30 12:19 | 22.16840 | 113.74503 | 3059 ft | 241 kts | 337° |
| 2026-04-30 12:19 | 22.18319 | 113.73765 | 2964 ft | 228 kts | 338° |
| 2026-04-30 12:19 | 22.19733 | 113.73062 | 2877 ft | 219 kts | 338° |
| 2026-04-30 12:20 | 22.21066 | 113.72396 | 2782 ft | 203 kts | 338° |
| 2026-04-30 12:20 | 22.22320 | 113.71805 | 2687 ft | 192 kts | 345° |
| 2026-04-30 12:20 | 22.23605 | 113.71781 | 2602 ft | 184 kts | 16° |
| 2026-04-30 12:20 | 22.24705 | 113.72442 | 2459 ft | 183 kts | 41° |
| 2026-04-30 12:21 | 22.25665 | 113.73339 | 2331 ft | 182 kts | 41° |
| 2026-04-30 12:21 | 22.26623 | 113.74234 | 2201 ft | 182 kts | 40° |
| 2026-04-30 12:21 | 22.27579 | 113.75130 | 2073 ft | 181 kts | 44° |
| 2026-04-30 12:21 | 22.28276 | 113.76220 | 1935 ft | 171 kts | 69° |
| 2026-04-30 12:22 | 22.28648 | 113.77367 | 1831 ft | 154 kts | 69° |
| 2026-04-30 12:22 | 22.28993 | 113.78429 | 1777 ft | 149 kts | 70° |
| 2026-04-30 12:22 | 22.29331 | 113.79475 | 1648 ft | 146 kts | 69° |
| 2026-04-30 12:22 | 22.29656 | 113.80478 | 1478 ft | 139 kts | 71° |
| 2026-04-30 12:23 | 22.29971 | 113.81453 | 1301 ft | 136 kts | 69° |
| 2026-04-30 12:23 | 22.30283 | 113.82418 | 1137 ft | 136 kts | 70° |
| 2026-04-30 12:23 | 22.30595 | 113.83386 | 969 ft | 137 kts | 70° |
| 2026-04-30 12:23 | 22.30905 | 113.84355 | 813 ft | 137 kts | 71° |
| 2026-04-30 12:24 | 22.31220 | 113.85331 | 639 ft | 141 kts | 68° |
| 2026-04-30 12:24 | 22.31546 | 113.86336 | 426 ft | 144 kts | 69° |
| 2026-04-30 12:24 | 22.31883 | 113.87363 | 249 ft | 146 kts | 68° |
| 2026-04-30 12:24 | 22.32219 | 113.88409 | 84 ft | 147 kts | 69° |
| 2026-04-30 12:25 | 22.32533 | 113.89376 | 36 ft | 123 kts | 72° |
| 2026-04-30 12:25 | 22.32758 | 113.90073 | 36 ft | 73 kts | 70° |
| 2026-04-30 12:25 | 22.32826 | 113.90400 | 33 ft | 33 kts | 93° |